EKYT/AAL METAR and TAF weather

Enter ICAO airport designator
Station Type Date Time Source
EKYT METAR 2021/09/24 03:06 UTC NOAA

EKYT 240306Z AUTO 29015G26KT 9999 NCD 12/07 Q1005


Station Type Date Time Source
EKYT Decoded METAR 2021/09/24 03:06 UTC NOAA

Aalborg, Denmark (EKYT) 57-06N 009-51E 13M
Sep 23, 2021 - 11:06 PM EDT / 2021.09.24 0306 UTC
Wind: from the WNW (290 degrees) at 17 MPH (15 KT) gusting to 30 MPH (26 KT):0
Visibility: greater than 7 mile(s):0
Temperature: 53 F (12 C)
Dew Point: 44 F (7 C)
Relative Humidity: 71%
Pressure (altimeter): 29.68 in. Hg (1005 hPa)
ob: EKYT 240306Z AUTO 29015G26KT 9999 NCD 12/07 Q1005
cycle: 3

Station Type Date Time Source
EKYT TAF 2021/09/24 03:30 UTC NOAA

TAF EKYT 240209Z 2403/2503 30012KT 9999 FEW120
BECMG 2407/2410 19012KT
BECMG 2410/2412 24015G25KT
TEMPO 2410/2421 6000 -RADZ BKN010
BECMG 2421/2424 28015G25KT

Example: see airport list